Time;durP1;ratioP1;P1;durP2;ratioP2;P2;SDS_P1;SDS_P2;PMS_P1;PMS_P2;Temp;Humidity;BMP_temperature;BMP_pressure;BME280_temperature;BME280_humidity;BME280_pressure;Samples;Min_cycle;Max_cycle;Signal;HPM_P1;HPM_P2
2022/10/30 00:00:47;;;;;;;;;12.33;12.33;;;;;17.08;71.18;101596.66;5048357;28;8845;-69
2022/10/30 00:03:14;;;;;;;;;8.75;8.75;;;;;17.05;71.34;101598.78;5047742;28;9068;-67
2022/10/30 00:05:43;;;;;;;;;12.33;10.67;;;;;17.05;70.88;101604.22;5050409;28;8834;-65
2022/10/30 00:08:11;;;;;;;;;12.33;11.33;;;;;17.02;71.09;101601.09;5049847;28;8937;-66
2022/10/30 00:10:38;;;;;;;;;14.33;14.33;;;;;17.02;71.48;101598.38;5047346;28;8944;-64
2022/10/30 00:13:05;;;;;;;;;9.00;7.75;;;;;17.03;71.22;101597.31;5047492;28;8838;-65
2022/10/30 00:15:32;;;;;;;;;10.00;7.00;;;;;17.04;71.42;101598.97;5050157;28;8871;-65
2022/10/30 00:17:59;;;;;;;;;8.75;8.75;;;;;17.02;71.14;101595.66;5049680;28;8962;-65
2022/10/30 00:20:26;;;;;;;;;10.67;10.00;;;;;17.01;71.46;101600.25;5045430;28;8849;-66
2022/10/30 00:22:52;;;;;;;;;10.75;9.00;;;;;17.00;71.63;101606.75;5048508;28;8936;-65
2022/10/30 00:25:19;;;;;;;;;10.75;9.50;;;;;16.98;71.40;101597.97;5048967;28;8872;-66
2022/10/30 00:27:45;;;;;;;;;9.00;9.00;;;;;16.95;71.69;101600.28;5048328;28;8837;-66
2022/10/30 00:30:14;;;;;;;;;8.50;7.25;;;;;16.93;71.32;101607.81;5049064;28;8834;-65
2022/10/30 00:32:41;;;;;;;;;8.67;8.00;;;;;16.90;71.60;101605.56;5049835;28;8848;-66
2022/10/30 00:35:09;;;;;;;;;11.25;9.00;;;;;16.87;71.63;101597.81;5049965;28;8917;-66
2022/10/30 00:37:37;;;;;;;;;8.75;7.50;;;;;16.86;71.65;101615.19;5047100;28;8976;-66
2022/10/30 00:40:05;;;;;;;;;10.00;10.00;;;;;16.82;71.79;101608.53;5037979;28;8852;-65
2022/10/30 00:42:31;;;;;;;;;10.00;10.00;;;;;16.80;72.08;101617.72;5046881;28;8844;-65
2022/10/30 00:44:58;;;;;;;;;10.00;10.00;;;;;16.78;71.88;101617.13;5048196;28;9064;-65
2022/10/30 00:47:33;;;;;;;;;13.00;12.00;;;;;16.79;71.98;101612.50;5048989;28;8903;-66
2022/10/30 00:50:10;;;;;;;;;13.00;11.67;;;;;16.80;72.00;101612.28;5044098;28;9050;-64
2022/10/30 00:52:41;;;;;;;;;16.33;15.33;;;;;16.78;71.93;101614.41;5033197;28;9816;-65
2022/10/30 00:55:13;;;;;;;;;9.33;9.33;;;;;16.76;72.00;101615.66;5043835;28;9066;-65
2022/10/30 00:57:41;;;;;;;;;8.00;7.00;;;;;16.76;71.82;101621.09;5062974;28;9738;-65
2022/10/30 01:00:10;;;;;;;;;11.67;9.33;;;;;16.75;72.09;101619.44;5047984;28;9022;-65
2022/10/30 01:02:39;;;;;;;;;11.67;10.67;;;;;16.73;72.15;101618.78;5064783;28;9139;-67
2022/10/30 01:05:06;;;;;;;;;8.25;8.25;;;;;16.70;72.05;101617.31;5049637;28;9013;-66
2022/10/30 01:07:32;;;;;;;;;10.50;9.00;;;;;16.67;72.09;101616.91;5043848;28;8822;-66
2022/10/30 01:09:58;;;;;;;;;10.00;10.00;;;;;16.66;72.38;101626.13;5045736;28;8858;-65
2022/10/30 01:12:25;;;;;;;;;8.33;8.33;;;;;16.64;72.41;101623.63;5044462;28;8996;-67
2022/10/30 01:14:56;;;;;;;;;12.00;12.00;;;;;16.60;72.16;101616.94;5063526;28;8941;-67
2022/10/30 01:17:53;;;;;;;;;11.67;11.00;;;;;16.55;72.35;101625.75;5047520;28;9824;-67
2022/10/30 01:20:22;;;;;;;;;9.67;9.67;;;;;16.51;72.48;101619.06;5036521;28;8935;-65
2022/10/30 01:23:14;;;;;;;;;8.33;7.67;;;;;16.48;72.75;101622.22;5046552;28;8949;-65
2022/10/30 01:25:55;;;;;;;;;14.67;13.33;;;;;16.46;72.68;101623.50;5042658;28;9166;-67
2022/10/30 01:28:50;;;;;;;;;14.67;13.00;;;;;16.44;72.53;101629.13;5063110;28;9066;-65
2022/10/30 01:31:46;;;;;;;;;11.00;11.00;;;;;16.44;72.71;101639.16;5038317;28;9110;-65
2022/10/30 01:34:17;;;;;;;;;9.00;9.00;;;;;16.41;72.94;101637.72;5050647;28;9185;-65
2022/10/30 01:36:50;;;;;;;;;13.00;10.33;;;;;16.42;73.11;101642.09;5047743;28;8894;-66
2022/10/30 01:39:24;;;;;;;;;13.00;9.00;;;;;16.43;73.19;101635.59;5062332;28;9212;-64
2022/10/30 01:41:50;;;;;;;;;13.00;10.00;;;;;16.44;72.62;101644.59;5051385;28;9262;-65
2022/10/30 01:44:40;;;;;;;;;10.00;10.00;;;;;16.42;73.08;101639.38;5051089;28;9079;-64
2022/10/30 01:47:38;;;;;;;;;10.00;9.67;;;;;16.43;72.97;101635.59;5066241;28;9006;-65
2022/10/30 01:50:10;;;;;;;;;9.00;9.00;;;;;16.42;72.70;101635.84;5050261;28;9094;-67
2022/10/30 01:53:02;;;;;;;;;13.00;12.67;;;;;16.39;72.88;101636.25;5047039;28;9073;-67
2022/10/30 01:55:34;;;;;;;;;10.00;7.33;;;;;16.42;73.01;101647.53;5052707;28;8982;-68
2022/10/30 01:58:16;;;;;;;;;8.67;7.00;;;;;16.44;73.05;101640.00;5051582;28;9711;-66
2022/10/30 02:00:47;;;;;;;;;7.67;7.67;;;;;16.44;72.87;101636.44;5043605;28;8921;-65
2022/10/30 02:03:14;;;;;;;;;9.00;9.00;;;;;16.42;72.96;101641.25;5052249;28;9011;-66
2022/10/30 02:05:51;;;;;;;;;10.67;10.67;;;;;16.41;72.98;101640.44;5051872;28;8968;-66
2022/10/30 02:08:20;;;;;;;;;12.33;9.00;;;;;16.39;72.99;101639.81;5048928;28;9060;-66
2022/10/30 02:10:51;;;;;;;;;14.67;11.33;;;;;16.39;72.88;101644.41;5045200;28;9067;-64
2022/10/30 02:13:28;;;;;;;;;9.33;9.33;;;;;16.39;72.90;101644.41;5050453;28;9779;-66
2022/10/30 02:15:57;;;;;;;;;11.67;11.67;;;;;16.38;72.93;101640.03;5052654;28;8919;-66
2022/10/30 02:18:24;;;;;;;;;16.33;13.33;;;;;16.36;73.20;101642.09;5050597;28;9196;-66
2022/10/30 02:20:50;;;;;;;;;20.00;14.00;;;;;16.34;73.28;101644.22;5047718;28;9861;-66
2022/10/30 02:23:18;;;;;;;;;11.00;11.00;;;;;16.32;73.23;101645.25;5052833;28;9455;-66
2022/10/30 02:25:44;;;;;;;;;15.00;14.33;;;;;16.30;72.91;101646.53;5056729;28;9189;-66
2022/10/30 02:28:11;;;;;;;;;18.33;17.00;;;;;16.27;72.92;101655.09;5044951;28;9309;-67
2022/10/30 02:30:39;;;;;;;;;13.33;13.33;;;;;16.23;73.28;101649.25;5048840;28;9171;-67
2022/10/30 02:33:06;;;;;;;;;14.00;14.00;;;;;16.22;73.02;101653.00;5038910;28;9366;-66
2022/10/30 02:35:34;;;;;;;;;14.33;14.33;;;;;16.20;73.11;101652.38;5064331;28;9066;-65
2022/10/30 02:38:02;;;;;;;;;17.33;13.33;;;;;16.19;73.37;101648.00;5052951;28;9157;-67
2022/10/30 02:40:28;;;;;;;;;15.00;15.00;;;;;16.19;73.09;101655.31;5047253;28;9020;-66
2022/10/30 02:42:55;;;;;;;;;11.33;11.33;;;;;16.18;73.49;101640.91;5049953;28;9227;-65
2022/10/30 02:45:22;;;;;;;;;14.67;12.67;;;;;16.17;73.04;101649.28;5051794;28;9086;-66
2022/10/30 02:47:48;;;;;;;;;15.33;14.00;;;;;16.15;73.41;101652.19;5049922;28;9168;-66
2022/10/30 02:50:15;;;;;;;;;14.33;14.00;;;;;16.11;73.46;101656.38;5046195;28;9249;-65
2022/10/30 02:52:42;;;;;;;;;17.00;14.33;;;;;16.08;73.41;101654.06;5066229;28;9316;-67
2022/10/30 02:55:08;;;;;;;;;14.00;14.00;;;;;16.09;73.67;101661.19;5050719;28;9158;-66
2022/10/30 02:57:36;;;;;;;;;19.00;14.67;;;;;16.09;73.56;101657.63;5046481;28;9291;-67
2022/10/30 03:00:03;;;;;;;;;22.00;19.67;;;;;16.09;73.74;101661.19;5048547;28;9308;-66
2022/10/30 03:02:30;;;;;;;;;23.25;21.00;;;;;16.09;73.66;101663.06;5048567;28;9463;-67
2022/10/30 03:04:56;;;;;;;;;21.00;14.67;;;;;16.04;73.22;101661.81;5065488;28;9371;-64
2022/10/30 03:07:24;;;;;;;;;12.67;12.00;;;;;16.02;73.53;101668.50;5066928;28;9438;-64
2022/10/30 03:09:51;;;;;;;;;17.00;14.67;;;;;15.98;74.03;101665.38;5050136;28;9248;-67
2022/10/30 03:12:17;;;;;;;;;16.33;13.67;;;;;15.97;73.68;101662.88;5049336;28;9167;-66
2022/10/30 03:14:44;;;;;;;;;11.67;11.67;;;;;15.98;73.85;101665.38;5049019;28;9221;-66
2022/10/30 03:17:10;;;;;;;;;10.67;10.67;;;;;15.98;73.91;101669.97;5049368;28;9183;-65
2022/10/30 03:19:39;;;;;;;;;11.67;11.33;;;;;15.99;73.91;101660.75;5047920;28;9160;-65
2022/10/30 03:22:07;;;;;;;;;11.67;11.00;;;;;15.98;73.77;101662.66;5044099;28;9087;-65
2022/10/30 03:24:37;;;;;;;;;11.00;11.00;;;;;15.99;74.01;101658.88;5066472;28;9064;-65
2022/10/30 03:27:04;;;;;;;;;15.67;11.33;;;;;15.98;73.53;101650.94;5044198;28;9782;-66
2022/10/30 03:29:30;;;;;;;;;11.33;10.33;;;;;15.92;73.79;101660.78;5050842;28;8992;-66
2022/10/30 03:31:57;;;;;;;;;12.67;11.00;;;;;15.93;73.79;101658.91;5049263;28;9093;-65
2022/10/30 03:34:28;;;;;;;;;14.33;13.00;;;;;15.92;73.97;101649.94;5065920;28;9227;-65
2022/10/30 03:36:57;;;;;;;;;10.33;10.33;;;;;15.92;74.17;101649.06;5049489;28;9777;-66
2022/10/30 03:39:24;;;;;;;;;11.00;10.33;;;;;15.91;74.25;101644.69;5049013;28;9010;-66
2022/10/30 03:41:50;;;;;;;;;14.00;14.00;;;;;15.91;73.88;101645.50;5060143;28;10162;-65
2022/10/30 03:44:17;;;;;;;;;12.67;12.67;;;;;15.88;73.82;101645.09;5062094;28;9873;-66
2022/10/30 03:46:43;;;;;;;;;16.67;12.67;;;;;15.85;73.80;101634.69;5047418;28;9152;-67
2022/10/30 03:49:36;;;;;;;;;10.67;9.33;;;;;15.80;73.88;101633.44;5049095;28;9056;-65
2022/10/30 03:52:07;;;;;;;;;12.00;11.00;;;;;15.76;73.79;101637.59;5047395;28;9168;-66
2022/10/30 03:54:34;;;;;;;;;17.33;14.33;;;;;15.73;74.05;101643.44;5047855;28;9158;-66
2022/10/30 03:57:00;;;;;;;;;15.00;13.00;;;;;15.70;74.07;101657.44;5050384;28;9251;-65
2022/10/30 03:59:33;;;;;;;;;14.33;12.33;;;;;15.66;73.97;101652.63;5048856;28;10081;-65
2022/10/30 04:02:16;;;;;;;;;17.00;11.00;;;;;15.63;74.44;101636.72;5044341;28;9938;-67
2022/10/30 04:04:43;;;;;;;;;18.67;16.33;;;;;15.60;73.97;101643.41;5051025;28;9865;-65
2022/10/30 04:07:09;;;;;;;;;11.67;11.67;;;;;15.60;74.19;101648.84;5047519;28;9317;-65
2022/10/30 04:09:36;;;;;;;;;14.67;14.00;;;;;15.57;74.34;101641.13;5048680;28;9247;-67
2022/10/30 04:12:03;;;;;;;;;11.33;11.33;;;;;15.54;73.98;101639.63;5045572;28;9174;-69
2022/10/30 04:14:30;;;;;;;;;13.00;11.33;;;;;15.53;74.34;101642.56;5047407;28;9234;-66
2022/10/30 04:16:57;;;;;;;;;18.33;15.67;;;;;15.52;74.47;101635.47;5048697;28;8994;-65
2022/10/30 04:19:23;;;;;;;;;16.67;11.00;;;;;15.51;74.21;101639.22;5049514;28;9308;-66
2022/10/30 04:21:50;;;;;;;;;10.00;10.00;;;;;15.51;74.16;101647.34;5041612;28;9062;-66
2022/10/30 04:24:17;;;;;;;;;15.00;13.67;;;;;15.49;74.65;101653.00;5043948;28;9139;-66
2022/10/30 04:26:47;;;;;;;;;11.00;11.00;;;;;15.45;74.25;101649.03;5040700;28;9165;-65
2022/10/30 04:29:14;;;;;;;;;9.00;8.33;;;;;15.44;74.57;101649.25;5048458;28;9226;-69
2022/10/30 04:31:40;;;;;;;;;12.00;9.33;;;;;15.43;74.59;101650.25;5047734;28;9083;-66
2022/10/30 04:34:07;;;;;;;;;15.00;15.00;;;;;15.41;74.47;101655.91;5047815;28;9904;-67
2022/10/30 04:36:33;;;;;;;;;12.33;10.33;;;;;15.40;74.45;101648.00;5064518;28;9170;-67
2022/10/30 04:39:01;;;;;;;;;14.00;14.00;;;;;15.40;74.53;101654.25;5047133;28;9259;-65
2022/10/30 04:41:28;;;;;;;;;11.67;10.00;;;;;15.40;74.76;101648.00;5045508;28;9294;-67
2022/10/30 04:44:01;;;;;;;;;15.33;13.67;;;;;15.38;74.69;101644.63;5045380;28;9432;-66
2022/10/30 04:46:30;;;;;;;;;15.67;12.00;;;;;15.37;74.50;101654.66;5054119;28;9255;-66
2022/10/30 04:49:04;;;;;;;;;12.00;11.67;;;;;15.35;74.91;101656.72;5041284;28;9204;-67
2022/10/30 04:51:30;;;;;;;;;13.33;11.67;;;;;15.33;74.84;101654.22;5045456;28;9453;-66
2022/10/30 04:53:57;;;;;;;;;15.33;14.00;;;;;15.33;74.52;101653.41;5048235;28;9222;-66
2022/10/30 04:56:25;;;;;;;;;8.00;7.67;;;;;15.33;74.59;101650.69;5045858;28;9150;-67
2022/10/30 04:58:52;;;;;;;;;12.00;12.00;;;;;15.31;74.92;101647.31;5045367;28;9328;-67
2022/10/30 05:01:18;;;;;;;;;13.67;11.67;;;;;15.29;74.51;101644.81;5047983;28;9159;-66
2022/10/30 05:03:45;;;;;;;;;17.00;15.67;;;;;15.27;74.73;101646.06;5049286;28;9310;-66
2022/10/30 05:06:24;;;;;;;;;15.00;12.67;;;;;15.26;74.63;101647.94;5049812;28;9318;-67
2022/10/30 05:08:51;;;;;;;;;13.33;11.67;;;;;15.23;74.78;101634.81;5049842;28;10058;-66
2022/10/30 05:11:27;;;;;;;;;14.33;14.00;;;;;15.23;74.51;101632.09;5051822;28;9321;-65
2022/10/30 05:13:55;;;;;;;;;17.50;15.00;;;;;15.21;75.14;101628.75;5051161;28;9482;-65
2022/10/30 05:16:21;;;;;;;;;13.67;12.33;;;;;15.22;74.94;101624.97;5053215;28;10056;-67
2022/10/30 05:18:49;;;;;;;;;14.00;13.00;;;;;15.22;75.15;101619.56;5056758;28;9305;-66
2022/10/30 05:21:16;;;;;;;;;12.67;12.67;;;;;15.21;75.00;101626.03;5048191;28;9527;-68
2022/10/30 05:23:42;;;;;;;;;17.75;16.50;;;;;15.20;75.11;101624.38;5067813;28;9453;-67
2022/10/30 05:26:09;;;;;;;;;16.67;13.33;;;;;15.21;75.20;101617.91;5043897;28;10425;-67
2022/10/30 05:28:35;;;;;;;;;20.00;16.00;;;;;15.20;74.98;101624.38;5051687;28;9417;-66
2022/10/30 05:31:03;;;;;;;;;14.33;12.67;;;;;15.21;75.39;101638.75;5048979;28;9319;-67
2022/10/30 05:33:52;;;;;;;;;16.33;14.00;;;;;15.19;75.27;101638.97;5052892;28;9418;-65
2022/10/30 05:36:20;;;;;;;;;16.75;14.25;;;;;15.20;74.98;101643.34;5050068;28;9419;-67
2022/10/30 05:38:46;;;;;;;;;11.00;11.00;;;;;15.19;75.42;101636.25;5068200;28;9396;-66
2022/10/30 05:41:21;;;;;;;;;11.00;10.00;;;;;15.19;75.33;101635.41;5049525;28;9464;-65
2022/10/30 05:43:48;;;;;;;;;13.00;10.33;;;;;15.17;75.37;101632.91;5045881;28;9302;-66
2022/10/30 05:46:15;;;;;;;;;11.33;8.67;;;;;15.16;75.26;101631.25;5051454;28;9394;-67
2022/10/30 05:48:41;;;;;;;;;15.33;13.00;;;;;15.14;74.97;101637.91;5048302;28;9321;-68
2022/10/30 05:51:07;;;;;;;;;12.67;12.67;;;;;15.11;75.48;101636.47;5044505;28;9315;-68
2022/10/30 05:53:37;;;;;;;;;12.00;12.00;;;;;15.12;75.55;101640.00;5045963;28;9221;-67
2022/10/30 05:56:04;;;;;;;;;12.00;11.00;;;;;15.08;75.26;101636.84;5044744;28;9343;-68
2022/10/30 05:58:33;;;;;;;;;19.00;13.67;;;;;15.06;75.56;101634.34;5066862;28;9385;-67
2022/10/30 06:01:06;;;;;;;;;11.67;10.00;;;;;15.06;75.42;101630.78;5041595;28;9298;-68
2022/10/30 06:03:39;;;;;;;;;9.33;9.33;;;;;15.06;75.52;101638.94;5067762;28;9337;-67
2022/10/30 06:06:06;;;;;;;;;15.25;13.50;;;;;15.06;75.43;101641.63;5048085;28;9261;-67
2022/10/30 06:08:32;;;;;;;;;15.67;11.00;;;;;15.06;75.16;101637.03;5052073;28;9399;-69
2022/10/30 06:11:02;;;;;;;;;12.25;12.25;;;;;15.04;75.35;101649.16;5047579;28;9515;-69
2022/10/30 06:13:39;;;;;;;;;14.00;13.67;;;;;15.04;75.27;101651.88;5066008;28;9385;-69
2022/10/30 06:16:10;;;;;;;;;15.00;13.00;;;;;15.04;75.25;101660.00;5067406;28;9521;-69
2022/10/30 06:19:08;;;;;;;;;14.00;13.00;;;;;15.03;75.46;101661.88;5013282;28;9530;-69
2022/10/30 06:21:43;;;;;;;;;11.67;11.67;;;;;15.04;74.99;101663.53;5059422;28;9446;-69
2022/10/30 06:24:29;;;;;;;;;13.67;10.00;;;;;15.03;75.43;101658.34;5037700;28;10139;-68
2022/10/30 06:27:07;;;;;;;;;9.00;9.00;;;;;15.04;75.35;101658.13;5040920;28;9231;-70
2022/10/30 06:29:34;;;;;;;;;11.00;11.00;;;;;15.04;75.17;101655.41;5049905;28;9154;-67
2022/10/30 06:32:00;;;;;;;;;14.00;13.00;;;;;15.03;75.31;101661.88;5051773;28;9466;-69
2022/10/30 06:34:32;;;;;;;;;12.33;11.67;;;;;15.02;75.32;101665.59;5048802;28;9447;-68
2022/10/30 06:36:58;;;;;;;;;11.50;11.50;;;;;15.01;75.02;101668.53;5050430;28;9289;-69
2022/10/30 06:39:25;;;;;;;;;11.33;11.33;;;;;15.00;75.42;101666.88;5047016;28;9394;-69
2022/10/30 06:42:12;;;;;;;;;13.00;12.00;;;;;14.99;75.58;101670.59;5044794;28;9377;-69
2022/10/30 06:44:56;;;;;;;;;13.25;13.25;;;;;14.97;75.09;101661.84;5047536;28;9444;-69
2022/10/30 06:47:23;;;;;;;;;11.33;11.00;;;;;14.96;75.55;101665.59;5050219;28;9407;-67
2022/10/30 06:49:49;;;;;;;;;14.33;12.00;;;;;14.95;75.83;101667.47;5049753;28;9382;-69
2022/10/30 06:52:18;;;;;;;;;15.00;14.00;;;;;14.96;75.80;101676.44;5063914;28;9392;-69
2022/10/30 06:54:45;;;;;;;;;13.00;13.00;;;;;14.99;75.73;101676.03;5048427;28;9438;-69
2022/10/30 06:57:30;;;;;;;;;13.67;13.33;;;;;15.00;75.58;101675.00;5048370;28;9472;-68
2022/10/30 07:00:23;;;;;;;;;15.00;14.00;;;;;15.00;75.64;101675.00;5036807;28;10002;-68
2022/10/30 07:03:09;;;;;;;;;13.67;12.67;;;;;15.00;75.56;101677.72;5064059;28;9250;-67
2022/10/30 07:05:35;;;;;;;;;15.33;12.00;;;;;15.02;75.51;101678.34;5050153;28;9433;-68
2022/10/30 07:08:02;;;;;;;;;15.00;12.33;;;;;15.02;75.54;101681.03;5048405;28;9428;-68
2022/10/30 07:10:28;;;;;;;;;13.33;13.33;;;;;14.99;75.95;101673.31;5049099;28;9316;-68
2022/10/30 07:13:13;;;;;;;;;12.00;11.33;;;;;15.00;75.56;101670.41;5046471;28;9309;-68
2022/10/30 07:15:48;;;;;;;;;8.00;6.67;;;;;15.01;75.54;101666.66;5045931;28;9459;-68
2022/10/30 07:18:21;;;;;;;;;13.67;12.33;;;;;15.03;75.86;101663.75;5048404;28;9385;-69
2022/10/30 07:20:54;;;;;;;;;16.67;13.00;;;;;15.01;75.37;101661.22;5049278;28;9318;-68
2022/10/30 07:23:22;;;;;;;;;16.67;16.67;;;;;14.96;76.05;101663.72;5047395;28;9343;-69
2022/10/30 07:25:51;;;;;;;;;17.33;16.33;;;;;15.00;76.12;101656.03;5065549;28;10177;-68
2022/10/30 07:28:22;;;;;;;;;16.33;15.00;;;;;15.04;75.90;101660.00;5051004;28;9316;-69
2022/10/30 07:31:03;;;;;;;;;15.00;12.00;;;;;15.07;76.23;101665.84;5048681;28;9499;-68
2022/10/30 07:33:53;;;;;;;;;17.00;14.67;;;;;15.13;75.90;101656.06;5049746;28;9293;-67
2022/10/30 07:36:33;;;;;;;;;17.00;17.00;;;;;15.17;75.81;101653.78;5046380;28;9403;-67
2022/10/30 07:39:12;;;;;;;;;16.75;15.50;;;;;15.20;76.12;101658.78;5044516;28;9418;-68
2022/10/30 07:41:51;;;;;;;;;15.50;14.00;;;;;15.27;76.13;101665.03;5049350;28;9457;-69
2022/10/30 07:44:36;;;;;;;;;16.33;14.00;;;;;15.31;75.81;101671.75;5048643;28;10222;-69
2022/10/30 07:47:12;;;;;;;;;19.67;12.00;;;;;15.37;75.80;101664.66;5050371;28;9408;-68
2022/10/30 07:49:54;;;;;;;;;15.00;14.67;;;;;15.42;75.54;101664.88;5048833;28;9311;-68
2022/10/30 07:52:21;;;;;;;;;20.67;16.33;;;;;15.49;75.30;101673.88;5049785;28;9404;-69
2022/10/30 07:54:48;;;;;;;;;16.33;16.00;;;;;15.56;75.20;101672.00;5061017;28;9473;-69
2022/10/30 07:57:37;;;;;;;;;20.50;17.25;;;;;15.57;75.21;101666.38;5043953;28;9359;-69
2022/10/30 08:00:22;;;;;;;;;17.00;13.75;;;;;15.56;74.89;101664.72;5050098;28;9552;-68
2022/10/30 08:02:59;;;;;;;;;14.00;11.00;;;;;15.59;74.85;101668.88;5047829;28;9399;-68
2022/10/30 08:05:44;;;;;;;;;16.00;14.33;;;;;15.60;74.69;101673.28;5064358;28;9356;-67
2022/10/30 08:08:17;;;;;;;;;15.00;13.00;;;;;15.61;74.70;101669.50;5047081;28;9421;-69
2022/10/30 08:10:44;;;;;;;;;13.67;13.67;;;;;15.64;74.60;101671.81;5045327;28;9229;-70
2022/10/30 08:13:10;;;;;;;;;15.33;14.00;;;;;15.67;74.64;101673.28;5064425;28;9393;-69
2022/10/30 08:15:38;;;;;;;;;12.00;11.00;;;;;15.71;74.59;101674.53;5049056;28;9261;-68
2022/10/30 08:18:04;;;;;;;;;16.67;13.33;;;;;15.73;74.79;101675.19;5048548;28;9167;-70
2022/10/30 08:20:34;;;;;;;;;16.00;14.67;;;;;15.76;75.02;101670.19;5057350;28;9236;-69
2022/10/30 08:23:00;;;;;;;;;16.00;13.00;;;;;15.80;74.60;101674.16;5064268;28;9426;-67
2022/10/30 08:25:29;;;;;;;;;13.00;10.33;;;;;15.85;74.56;101689.81;5046420;28;10004;-68
2022/10/30 08:27:58;;;;;;;;;16.00;12.00;;;;;15.90;74.68;101679.16;5049702;28;9204;-69
2022/10/30 08:30:29;;;;;;;;;13.00;12.00;;;;;15.93;74.55;101665.16;5045588;28;9267;-67
2022/10/30 08:32:58;;;;;;;;;11.00;10.33;;;;;15.97;74.59;101682.72;5046614;28;9161;-69
2022/10/30 08:35:48;;;;;;;;;15.00;14.00;;;;;15.99;74.46;101672.47;5049684;28;9874;-68
2022/10/30 08:38:15;;;;;;;;;17.00;14.67;;;;;16.00;74.44;101682.31;5049526;28;9848;-69
2022/10/30 08:40:47;;;;;;;;;13.33;13.00;;;;;16.03;74.50;101678.31;5044457;28;9268;-69
2022/10/30 08:43:15;;;;;;;;;14.00;8.33;;;;;16.06;74.51;101686.03;5062933;28;9243;-69
2022/10/30 08:45:42;;;;;;;;;17.00;16.00;;;;;16.09;74.32;101690.22;5045952;28;9651;-67
2022/10/30 08:48:14;;;;;;;;;18.67;15.00;;;;;16.10;74.18;101679.16;5039286;28;9160;-68
2022/10/30 08:50:43;;;;;;;;;13.33;12.67;;;;;16.17;74.40;101682.69;5055734;28;9127;-66
2022/10/30 08:53:14;;;;;;;;;22.00;20.00;;;;;16.18;74.04;101689.78;5063227;28;9076;-66
2022/10/30 08:55:42;;;;;;;;;15.33;15.33;;;;;16.22;74.36;101679.34;5059869;28;9288;-67
2022/10/30 08:58:19;;;;;;;;;20.67;17.33;;;;;16.28;73.92;101678.47;5064719;28;9200;-66
2022/10/30 09:00:46;;;;;;;;;14.67;14.00;;;;;16.34;74.40;101677.66;5047604;28;9244;-67
2022/10/30 09:03:12;;;;;;;;;10.67;10.00;;;;;16.41;73.84;101667.63;5049342;28;10008;-67
2022/10/30 09:06:10;;;;;;;;;26.33;18.67;;;;;16.46;73.65;101670.53;5044278;28;9076;-66
2022/10/30 09:09:06;;;;;;;;;22.33;18.67;;;;;16.47;73.62;101666.75;5045973;28;9917;-68
2022/10/30 09:11:47;;;;;;;;;13.00;10.33;;;;;16.55;73.44;101668.41;5045661;28;9393;-68
2022/10/30 09:14:14;;;;;;;;;18.00;13.33;;;;;16.61;73.51;101669.41;5048261;28;9793;-68
2022/10/30 09:16:40;;;;;;;;;14.67;13.67;;;;;16.65;73.26;101671.53;5048594;28;9289;-68
2022/10/30 09:19:09;;;;;;;;;13.33;13.00;;;;;16.71;73.50;101676.09;5046612;28;9094;-67
2022/10/30 09:21:41;;;;;;;;;15.67;15.67;;;;;16.77;73.55;101683.44;5047437;28;9193;-68
2022/10/30 09:24:07;;;;;;;;;28.00;24.33;;;;;16.77;72.84;101693.44;5047138;28;9162;-69
2022/10/30 09:26:34;;;;;;;;;20.67;18.67;;;;;16.76;73.18;101689.88;5049250;28;9378;-68
2022/10/30 09:29:21;;;;;;;;;17.33;14.33;;;;;16.79;72.83;101688.63;5046422;28;9296;-64
2022/10/30 09:32:03;;;;;;;;;21.00;20.67;;;;;16.73;72.96;101684.03;5045898;28;9705;-68
2022/10/30 09:34:31;;;;;;;;;15.67;15.67;;;;;16.69;72.93;101689.06;5062216;28;9409;-67
2022/10/30 09:37:05;;;;;;;;;17.67;15.33;;;;;16.66;72.59;101692.22;5048335;28;9192;-66
2022/10/30 09:39:35;;;;;;;;;16.67;16.67;;;;;16.62;72.76;101693.69;5062223;28;9150;-66
2022/10/30 09:42:22;;;;;;;;;27.00;24.33;;;;;16.61;72.79;101688.44;5045441;28;9237;-68
2022/10/30 09:44:58;;;;;;;;;24.33;19.33;;;;;16.60;73.08;101694.94;5040599;28;9320;-67
2022/10/30 09:48:04;;;;;;;;;22.67;19.33;;;;;16.63;73.29;101694.53;5045737;28;9340;-69
2022/10/30 09:50:59;;;;;;;;;19.67;17.67;;;;;16.68;73.20;101691.97;5047354;28;9286;-66
2022/10/30 09:54:04;;;;;;;;;18.67;16.67;;;;;16.76;73.41;101697.22;5048788;28;9262;-67
2022/10/30 09:56:44;;;;;;;;;19.00;18.33;;;;;16.75;73.29;101695.56;5008209;28;9177;-68
2022/10/30 09:59:30;;;;;;;;;29.00;25.50;;;;;16.72;73.19;101694.06;5046814;28;9384;-68
2022/10/30 10:02:14;;;;;;;;;20.00;19.67;;;;;16.73;73.57;101693.06;5067600;28;9631;-70
2022/10/30 10:04:47;;;;;;;;;20.00;20.00;;;;;16.74;73.64;101694.72;5047657;28;9464;-69
2022/10/30 10:07:28;;;;;;;;;19.33;18.67;;;;;16.79;73.44;101689.47;5052416;28;9491;-69
2022/10/30 10:10:39;;;;;;;;;15.67;15.67;;;;;16.87;73.33;101682.13;5066686;28;9161;-69
2022/10/30 10:13:39;;;;;;;;;15.00;15.00;;;;;16.91;73.50;101688.81;5006969;28;9166;-68
2022/10/30 10:16:21;;;;;;;;;20.67;19.00;;;;;16.93;73.19;101684.81;5049449;28;9122;-67
2022/10/30 10:18:57;;;;;;;;;19.00;16.67;;;;;16.97;73.50;101677.88;5050824;28;10013;-70
2022/10/30 10:21:28;;;;;;;;;17.00;16.33;;;;;17.00;73.45;101682.91;5048656;28;9147;-68
2022/10/30 10:23:59;;;;;;;;;22.67;20.33;;;;;16.99;73.03;101692.13;5050937;28;9092;-68
2022/10/30 10:26:28;;;;;;;;;19.33;17.67;;;;;17.03;73.32;101681.63;5051514;28;9280;-69
2022/10/30 10:29:03;;;;;;;;;24.33;19.67;;;;;17.06;72.98;101681.22;5050498;28;9251;-69
2022/10/30 10:31:55;;;;;;;;;26.33;23.33;;;;;17.09;73.11;101672.59;5051050;28;9128;-68
2022/10/30 10:34:52;;;;;;;;;19.67;17.67;;;;;17.17;73.18;101679.69;5052096;28;9245;-68
2022/10/30 10:37:52;;;;;;;;;16.00;16.00;;;;;17.23;72.98;101673.38;5047011;28;9091;-68
2022/10/30 10:40:43;;;;;;;;;17.33;14.67;;;;;17.29;72.84;101670.59;5041820;28;8908;-67
2022/10/30 10:43:31;;;;;;;;;18.67;17.00;;;;;17.36;72.89;101675.19;5050151;28;9142;-67
2022/10/30 10:46:20;;;;;;;;;17.67;16.00;;;;;17.41;72.82;101675.34;5047469;28;9146;-67
2022/10/30 10:49:29;;;;;;;;;21.33;19.33;;;;;17.44;72.58;101678.47;5048217;28;9709;-65
2022/10/30 10:52:08;;;;;;;;;22.33;20.00;;;;;17.47;72.69;101671.75;5051225;28;9264;-65
2022/10/30 10:54:49;;;;;;;;;21.33;20.00;;;;;17.51;72.42;101673.00;5048514;28;9107;-65
2022/10/30 10:57:22;;;;;;;;;19.33;16.33;;;;;17.58;72.37;101679.19;5050833;28;8998;-67
2022/10/30 10:59:54;;;;;;;;;23.25;20.50;;;;;17.61;72.79;101672.50;5050957;28;8975;-66
2022/10/30 11:02:40;;;;;;;;;19.00;16.67;;;;;17.64;72.60;101670.16;5051745;28;8808;-67
2022/10/30 11:05:24;;;;;;;;;14.00;14.00;;;;;17.69;72.44;101664.06;5048522;28;8982;-67
2022/10/30 11:07:56;;;;;;;;;12.50;12.50;;;;;17.74;72.40;101656.03;5050811;28;9032;-68
2022/10/30 11:10:24;;;;;;;;;10.50;8.00;;;;;17.75;72.16;101655.88;5050395;28;8825;-69
2022/10/30 11:12:51;;;;;;;;;13.00;12.75;;;;;17.76;72.27;101649.38;5050527;28;8845;-67
2022/10/30 11:15:30;;;;;;;;;15.25;12.50;;;;;17.78;72.17;101658.16;5049596;28;8864;-68
2022/10/30 11:18:04;;;;;;;;;14.25;10.25;;;;;17.83;72.21;101653.94;5051809;28;9529;-68
2022/10/30 11:20:54;;;;;;;;;10.00;9.00;;;;;17.85;72.11;101655.38;5049352;28;8821;-66
2022/10/30 11:23:33;;;;;;;;;16.25;14.00;;;;;17.89;72.18;101647.59;5048253;28;8834;-68
2022/10/30 11:26:08;;;;;;;;;18.00;13.75;;;;;17.86;71.88;101651.56;5049143;28;8856;-67
2022/10/30 11:28:50;;;;;;;;;13.50;13.50;;;;;17.90;72.11;101646.53;5050291;28;8822;-67
2022/10/30 11:31:22;;;;;;;;;17.00;15.00;;;;;17.96;72.21;101642.91;5049173;28;8826;-67
2022/10/30 11:33:49;;;;;;;;;11.75;11.75;;;;;18.01;71.92;101634.91;5048652;28;8845;-67
2022/10/30 11:36:21;;;;;;;;;15.75;13.75;;;;;18.10;72.01;101640.88;5048611;28;8826;-66
2022/10/30 11:38:48;;;;;;;;;17.50;14.00;;;;;18.14;72.00;101636.66;5050501;28;8837;-66
2022/10/30 11:41:15;;;;;;;;;16.50;13.00;;;;;18.14;71.96;101632.03;5047174;28;9513;-66
2022/10/30 11:43:43;;;;;;;;;14.50;13.50;;;;;18.20;71.81;101636.59;5049856;28;8832;-68
2022/10/30 11:46:17;;;;;;;;;13.25;11.50;;;;;18.22;71.89;101630.91;5048208;28;8868;-67